Time;durP1;ratioP1;P1;durP2;ratioP2;P2;SDS_P1;SDS_P2;PMS_P1;PMS_P2;Temp;Humidity;BMP_temperature;BMP_pressure;BME280_temperature;BME280_humidity;BME280_pressure;Samples;Min_cycle;Max_cycle;Signal;HPM_P1;HPM_P2
2024/02/20 00:00:46;;;;;;;10.50;8.35;;;;;;;4.27;100.00;100288.69;1694407;84;27403;-65
2024/02/20 00:03:14;;;;;;;10.98;8.43;;;;;;;4.28;100.00;100295.64;1694274;84;25547;-65
2024/02/20 00:05:41;;;;;;;14.13;10.75;;;;;;;4.27;100.00;100291.88;1694336;84;25594;-66
2024/02/20 00:08:09;;;;;;;12.43;9.68;;;;;;;4.27;100.00;100299.91;1694320;84;26382;-65
2024/02/20 00:10:37;;;;;;;11.78;9.73;;;;;;;4.26;100.00;100292.97;1694488;84;25448;-65
2024/02/20 00:13:05;;;;;;;13.18;10.10;;;;;;;4.25;100.00;100297.50;1706561;83;27709;-66
2024/02/20 00:15:31;;;;;;;11.18;8.78;;;;;;;4.25;100.00;100292.69;1733043;82;25597;-65
2024/02/20 00:17:58;;;;;;;9.25;7.47;;;;;;;4.24;100.00;100294.58;1762616;81;25400;-66
2024/02/20 00:20:29;;;;;;;10.35;8.53;;;;;;;4.24;100.00;100301.27;1762697;81;26263;-65
2024/02/20 00:22:56;;;;;;;9.48;6.95;;;;;;;4.25;100.00;100297.50;1760088;81;25443;-64
2024/02/20 00:25:22;;;;;;;10.15;7.83;;;;;;;4.25;100.00;100297.50;1728148;82;27333;-64
2024/02/20 00:27:50;;;;;;;9.65;7.00;;;;;;;4.24;100.00;100295.91;1732492;82;27126;-61
2024/02/20 00:30:16;;;;;;;7.22;6.42;;;;;;;4.23;100.00;100295.63;1761239;81;25726;-60
2024/02/20 00:32:43;;;;;;;10.63;6.95;;;;;;;4.23;100.00;100298.86;1732844;82;25534;-61
2024/02/20 00:35:09;;;;;;;11.78;7.00;;;;;;;4.21;100.00;100303.67;1765351;80;25552;-60
2024/02/20 00:37:37;;;;;;;8.98;6.85;;;;;;;4.18;100.00;100288.14;1768546;81;27204;-59
2024/02/20 00:40:09;;;;;;;6.47;5.72;;;;;;;4.18;100.00;100302.86;1766316;80;25421;-62
2024/02/20 00:42:35;;;;;;;8.93;6.20;;;;;;;4.17;100.00;100303.92;1766491;81;25387;-61
2024/02/20 00:45:06;;;;;;;8.48;6.17;;;;;;;4.17;100.00;100299.91;1767178;81;25661;-61
2024/02/20 00:47:32;;;;;;;7.60;5.50;;;;;;;4.17;100.00;100302.58;1768731;81;25594;-61
2024/02/20 00:49:59;;;;;;;7.67;5.50;;;;;;;4.16;100.00;100302.33;1766400;81;27447;-61
2024/02/20 00:52:27;;;;;;;8.33;6.15;;;;;;;4.16;100.00;100293.75;1766362;81;25460;-62
2024/02/20 00:54:54;;;;;;;9.20;6.00;;;;;;;4.17;100.00;100297.23;1768544;81;25550;-61
2024/02/20 00:57:23;;;;;;;8.18;6.00;;;;;;;4.16;100.00;100297.77;1766345;81;25314;-61
2024/02/20 00:59:50;;;;;;;9.20;5.70;;;;;;;4.15;100.00;100296.70;1766556;80;25515;-61
2024/02/20 01:02:19;;;;;;;10.03;5.83;;;;;;;4.15;100.00;100290.00;1768547;81;27223;-61
2024/02/20 01:04:45;;;;;;;7.83;6.00;;;;;;;4.16;100.00;100292.96;1766500;80;25623;-61
2024/02/20 01:07:12;;;;;;;5.67;5.08;;;;;;;4.17;100.00;100286.52;1766387;80;25639;-63
2024/02/20 01:09:39;;;;;;;6.67;5.65;;;;;;;4.17;100.00;100293.21;1768581;81;25468;-61
2024/02/20 01:12:08;;;;;;;6.80;5.47;;;;;;;4.17;100.00;100288.69;1766426;81;25662;-61
2024/02/20 01:14:41;;;;;;;7.78;6.30;;;;;;;4.18;100.00;100287.59;1766430;80;28333;-61
2024/02/20 01:17:06;;;;;;;7.35;6.12;;;;;;;4.18;100.00;100278.22;1766208;80;25674;-61
2024/02/20 01:19:32;;;;;;;8.43;6.03;;;;;;;4.20;100.00;100287.33;1766432;81;25613;-62
2024/02/20 01:22:01;;;;;;;7.45;6.55;;;;;;;4.22;100.00;100285.19;1767233;81;27543;-61
2024/02/20 01:24:27;;;;;;;7.47;6.10;;;;;;;4.23;100.00;100282.24;1768564;81;25628;-61
2024/02/20 01:26:54;;;;;;;7.67;5.87;;;;;;;4.23;100.00;100272.88;1766418;81;27485;-61
2024/02/20 01:29:22;;;;;;;9.05;5.50;;;;;;;4.23;100.00;100275.55;1766423;80;25436;-61
2024/02/20 01:31:53;;;;;;;8.68;5.97;;;;;;;4.25;100.00;100275.28;1766627;81;25548;-61
2024/02/20 01:34:19;;;;;;;;;;;;;;;4.28;100.00;100278.77;1771459;81;26540;-61
2024/02/20 01:36:45;;;;;;;6.75;5.65;;;;;;;4.30;100.00;100277.97;1757354;81;25207;-61
2024/02/20 01:39:13;;;;;;;8.33;5.55;;;;;;;4.30;100.00;100276.62;1765136;80;27997;-61
2024/02/20 01:41:39;;;;;;;9.75;5.55;;;;;;;4.31;100.00;100272.89;1765146;81;25530;-61
2024/02/20 01:44:05;;;;;;;7.20;5.58;;;;;;;4.33;100.00;100277.44;1736130;82;25644;-61
2024/02/20 01:46:35;;;;;;;9.78;5.67;;;;;;;4.32;100.00;100274.48;1757107;81;25997;-61
2024/02/20 01:49:03;;;;;;;9.15;6.22;;;;;;;4.32;100.00;100272.34;1765373;81;25605;-59
2024/02/20 01:51:34;;;;;;;8.70;6.58;;;;;;;4.33;100.00;100276.64;1759841;80;27317;-62
2024/02/20 01:54:04;;;;;;;8.25;5.72;;;;;;;4.34;100.00;100281.70;1759764;81;25542;-62
2024/02/20 01:56:35;;;;;;;8.83;6.33;;;;;;;4.34;100.00;100272.33;1759842;81;25444;-60
2024/02/20 01:59:05;;;;;;;9.63;6.35;;;;;;;4.35;100.00;100269.14;1759749;81;26094;-60
2024/02/20 02:01:32;;;;;;;10.10;6.62;;;;;;;4.35;100.00;100271.27;1759814;81;25407;-61
2024/02/20 02:03:59;;;;;;;9.23;6.55;;;;;;;4.37;100.00;100271.80;1759748;81;27939;-62
2024/02/20 02:06:30;;;;;;;11.15;6.95;;;;;;;4.40;100.00;100271.81;1759728;81;25441;-60
2024/02/20 02:08:59;;;;;;;10.08;6.67;;;;;;;4.42;100.00;100269.12;1759820;81;25395;-61
2024/02/20 02:11:27;;;;;;;10.38;7.45;;;;;;;4.45;100.00;100272.61;1759863;81;25561;-61
2024/02/20 02:13:56;;;;;;;10.72;6.80;;;;;;;4.47;100.00;100265.10;1759722;81;25591;-62
2024/02/20 02:16:26;;;;;;;11.03;7.60;;;;;;;4.51;100.00;100269.92;1759904;81;27392;-58
2024/02/20 02:18:53;;;;;;;11.38;7.47;;;;;;;4.53;100.00;100269.12;1759694;81;25820;-61
2024/02/20 02:21:19;;;;;;;10.85;7.50;;;;;;;4.55;100.00;100268.34;1759724;81;25700;-60
2024/02/20 02:23:48;;;;;;;11.63;8.00;;;;;;;4.57;100.00;100266.98;1759696;81;25532;-61
2024/02/20 02:26:18;;;;;;;13.18;7.87;;;;;;;4.59;100.00;100275.55;1759969;81;25570;-60
2024/02/20 02:28:47;;;;;;;11.18;7.62;;;;;;;4.62;100.00;100271.54;1759722;81;27753;-61
2024/02/20 02:31:16;;;;;;;15.68;13.05;;;;;;;4.62;100.00;100272.34;1759006;81;25611;-59
2024/02/20 02:33:48;;;;;;;11.68;7.80;;;;;;;4.63;100.00;100270.45;1759751;81;25633;-61
2024/02/20 02:36:16;;;;;;;13.65;8.43;;;;;;;4.65;100.00;100266.98;1759583;80;25457;-60
2024/02/20 02:38:43;;;;;;;11.73;8.93;;;;;;;4.66;100.00;100269.91;1759909;81;25550;-61
2024/02/20 02:41:13;;;;;;;11.88;8.28;;;;;;;4.67;100.00;100262.95;1759774;81;27885;-61
2024/02/20 02:43:59;;;;;;;13.50;8.40;;;;;;;4.67;100.00;100258.93;1759609;81;25476;-60
2024/02/20 02:46:25;;;;;;;12.40;8.53;;;;;;;4.72;100.00;100269.39;1738825;82;25501;-61
2024/02/20 02:48:52;;;;;;;12.35;8.50;;;;;;;4.72;100.00;100267.51;1738654;82;25633;-60
2024/02/20 02:51:18;;;;;;;12.85;8.13;;;;;;;4.72;100.00;100266.17;1738840;82;25689;-60
2024/02/20 02:53:45;;;;;;;11.40;7.78;;;;;;;4.74;100.00;100265.90;1738729;82;27285;-61
2024/02/20 02:56:15;;;;;;;11.25;6.95;;;;;;;4.74;100.00;100265.36;1738690;82;25469;-60
2024/02/20 02:58:42;;;;;;;12.85;8.18;;;;;;;4.74;100.00;100266.70;1738746;82;25554;-61
2024/02/20 03:01:12;;;;;;;13.45;8.65;;;;;;;4.77;100.00;100264.82;1738712;82;26274;-61
2024/02/20 03:03:40;;;;;;;81.47;75.78;;;;;;;4.79;100.00;100261.88;1738868;82;25582;-60
2024/02/20 03:06:09;;;;;;;81.25;75.35;;;;;;;4.78;100.00;100264.27;1738842;82;27347;-61
2024/02/20 03:08:44;;;;;;;56.63;52.70;;;;;;;4.76;100.00;100257.84;1738742;82;25508;-62
2024/02/20 03:11:08;;;;;;;79.55;73.75;;;;;;;4.77;100.00;100254.65;1751545;81;25816;-62
2024/02/20 03:13:41;;;;;;;81.40;75.55;;;;;;;4.79;100.00;100251.95;1759763;81;25575;-62
2024/02/20 03:16:11;;;;;;;80.28;74.47;;;;;;;4.80;100.00;100252.23;1759757;81;25617;-60
2024/02/20 03:18:45;;;;;;;78.62;72.92;;;;;;;4.82;100.00;100257.31;1759668;81;28336;-61
2024/02/20 03:21:11;;;;;;;80.53;74.85;;;;;;;4.80;100.00;100258.92;1758909;81;25833;-61
2024/02/20 03:23:37;;;;;;;77.45;71.60;;;;;;;4.81;100.00;100253.81;1759763;81;25509;-62
2024/02/20 03:26:07;;;;;;;17.92;8.35;;;;;;;4.85;100.00;100259.43;1759618;81;25509;-61
2024/02/20 03:28:33;;;;;;;14.78;9.10;;;;;;;4.84;100.00;100257.30;1759906;81;25567;-61
2024/02/20 03:31:00;;;;;;;74.87;69.27;;;;;;;4.85;100.00;100256.75;1759835;81;27393;-61
2024/02/20 03:33:29;;;;;;;84.87;78.50;;;;;;;4.84;100.00;100261.86;1759661;81;25649;-59
2024/02/20 03:36:01;;;;;;;85.07;78.47;;;;;;;4.84;100.00;100261.86;1759805;81;25610;-61
2024/02/20 03:38:32;;;;;;;84.90;78.57;;;;;;;4.85;100.00;100267.47;1759802;81;25712;-61
2024/02/20 03:40:58;;;;;;;84.22;77.58;;;;;;;4.85;100.00;100264.80;1759784;81;25561;-61
2024/02/20 03:43:26;;;;;;;81.60;75.50;;;;;;;4.86;100.00;100271.77;1759681;81;27318;-61
2024/02/20 03:45:55;;;;;;;84.52;78.25;;;;;;;4.86;100.00;100271.22;1759514;80;25578;-61
2024/02/20 03:48:21;;;;;;;82.65;76.20;;;;;;;4.88;100.00;100265.59;1759710;81;25381;-61
2024/02/20 03:50:51;;;;;;;83.30;76.82;;;;;;;4.89;100.00;100263.70;1759739;81;25595;-60
2024/02/20 03:53:19;;;;;;;80.07;74.17;;;;;;;4.90;100.00;100262.64;1759685;81;25582;-61
2024/02/20 03:55:45;;;;;;;82.10;76.25;;;;;;;4.89;100.00;100263.19;1759684;81;27326;-61
2024/02/20 03:58:16;;;;;;;80.67;74.55;;;;;;;4.91;100.00;100257.02;1759516;81;25634;-61
2024/02/20 04:00:42;;;;;;;80.53;74.35;;;;;;;4.91;100.00;100262.38;1759665;81;25552;-61
2024/02/20 04:03:08;;;;;;;16.50;10.20;;;;;;;4.98;100.00;100278.97;1759753;81;25812;-61
2024/02/20 04:05:35;;;;;;;16.42;10.30;;;;;;;4.97;100.00;100273.37;1759723;81;25632;-61
2024/02/20 04:08:06;;;;;;;81.82;75.62;;;;;;;4.97;100.00;100277.91;1759674;81;27192;-61
2024/02/20 04:10:33;;;;;;;82.27;76.28;;;;;;;4.96;100.00;100277.66;1759659;81;25488;-60
2024/02/20 04:13:00;;;;;;;83.27;76.95;;;;;;;4.95;100.00;100272.02;1759649;81;25434;-61
2024/02/20 04:15:27;;;;;;;82.70;76.65;;;;;;;4.95;100.00;100276.83;1759650;81;25607;-61
2024/02/20 04:17:54;;;;;;;83.75;77.55;;;;;;;4.96;100.00;100275.77;1759806;81;25623;-61
2024/02/20 04:20:24;;;;;;;82.80;76.65;;;;;;;4.96;100.00;100266.94;1759641;81;27393;-62
2024/02/20 04:22:50;;;;;;;81.70;75.83;;;;;;;4.97;100.00;100280.58;1759737;81;25661;-61
2024/02/20 04:25:16;;;;;;;82.70;76.37;;;;;;;4.98;100.00;100275.50;1759680;81;25449;-62
2024/02/20 04:27:47;;;;;;;84.03;77.53;;;;;;;4.98;100.00;100278.18;1759625;81;25557;-62
2024/02/20 04:30:14;;;;;;;82.75;76.75;;;;;;;4.99;100.00;100277.12;1759628;81;25395;-63
2024/02/20 04:32:41;;;;;;;82.05;76.05;;;;;;;4.99;100.00;100279.25;1759625;81;27959;-63
2024/02/20 04:35:11;;;;;;;82.00;75.55;;;;;;;5.00;100.00;100280.84;1759551;81;25829;-62
2024/02/20 04:37:37;;;;;;;83.12;76.72;;;;;;;5.01;100.00;100278.98;1759776;81;25429;-61
2024/02/20 04:40:10;;;;;;;83.25;77.00;;;;;;;5.03;100.00;100283.53;1759591;81;25548;-62
2024/02/20 04:42:36;;;;;;;81.45;75.35;;;;;;;5.03;100.00;100275.48;1759747;81;25630;-61
2024/02/20 04:45:10;;;;;;;83.07;76.97;;;;;;;5.03;100.00;100280.84;1759632;80;26885;-62
2024/02/20 04:47:37;;;;;;;82.88;76.57;;;;;;;5.04;100.00;100276.56;1759688;81;25815;-61
2024/02/20 04:50:10;;;;;;;80.95;74.92;;;;;;;5.05;100.00;100276.02;1759608;81;25547;-61
2024/02/20 04:52:37;;;;;;;82.90;76.75;;;;;;;5.05;100.00;100280.83;1759644;81;25604;-61
2024/02/20 04:55:08;;;;;;;80.75;74.77;;;;;;;5.07;100.00;100275.74;1759679;81;25387;-60
2024/02/20 04:57:35;;;;;;;82.45;76.47;;;;;;;5.04;100.00;100277.11;1759680;81;27338;-61
2024/02/20 05:00:13;;;;;;;84.75;78.20;;;;;;;5.07;100.00;100285.13;1759546;81;25394;-60
2024/02/20 05:02:46;;;;;;;81.35;75.22;;;;;;;5.07;100.00;100280.56;1759717;81;25449;-61
2024/02/20 05:05:14;;;;;;;82.55;75.80;;;;;;;5.08;100.00;100287.54;1759827;81;25645;-61
2024/02/20 05:07:42;;;;;;;34.18;31.07;;;;;;;5.07;100.00;100284.58;1759776;81;25577;-61
2024/02/20 05:10:13;;;;;;;25.08;22.60;;;;;;;5.12;100.00;100291.27;1759906;81;27264;-61
2024/02/20 05:12:44;;;;;;;13.53;8.55;;;;;;;5.14;100.00;100293.68;1759780;81;25401;-62
2024/02/20 05:15:15;;;;;;;13.22;9.75;;;;;;;5.13;100.00;100295.56;1759849;81;25485;-61
2024/02/20 05:17:41;;;;;;;16.30;10.43;;;;;;;5.14;100.00;100301.72;1759858;80;25448;-61
2024/02/20 05:20:11;;;;;;;14.95;9.78;;;;;;;5.12;100.00;100301.20;1759749;81;25539;-61
2024/02/20 05:22:37;;;;;;;14.07;9.18;;;;;;;5.11;100.00;100298.24;1759920;81;27339;-62
2024/02/20 05:25:09;;;;;;;13.18;8.63;;;;;;;5.10;100.00;100299.33;1759747;81;25560;-60
2024/02/20 05:27:36;;;;;;;14.13;9.38;;;;;;;5.10;100.00;100304.16;1759860;81;25659;-61
2024/02/20 05:30:11;;;;;;;13.75;8.63;;;;;;;5.10;100.00;100308.72;1759770;81;25575;-60
2024/02/20 05:32:37;;;;;;;13.50;8.98;;;;;;;5.10;100.00;100314.87;1759886;81;25619;-61
2024/02/20 05:35:10;;;;;;;79.22;73.62;;;;;;;5.10;100.00;100312.74;1759756;81;27431;-59
2024/02/20 05:37:36;;;;;;;15.13;9.95;;;;;;;5.06;100.00;100295.05;1759712;81;25409;-61
2024/02/20 05:40:12;;;;;;;14.43;10.23;;;;;;;5.11;100.00;100312.47;1759763;81;25615;-61
2024/02/20 05:42:42;;;;;;;13.70;8.05;;;;;;;5.12;100.00;100318.08;1759743;81;26161;-61
2024/02/20 05:45:11;;;;;;;12.15;7.55;;;;;;;5.10;100.00;100312.74;1760565;81;25449;-60
2024/02/20 05:47:41;;;;;;;12.78;7.83;;;;;;;5.10;100.00;100314.08;1733774;82;27956;-60
2024/02/20 05:50:12;;;;;;;13.43;8.10;;;;;;;5.10;100.00;100312.74;1733610;82;25616;-61
2024/02/20 05:52:42;;;;;;;10.43;7.72;;;;;;;5.09;100.00;100320.51;1733702;82;25560;-61
2024/02/20 05:55:11;;;;;;;11.70;7.55;;;;;;;5.08;100.00;100320.26;1733638;82;25624;-61
2024/02/20 05:57:39;;;;;;;34.00;31.23;;;;;;;5.08;100.00;100322.94;1733843;82;25630;-62
2024/02/20 06:00:12;;;;;;;8.93;6.05;;;;;;;5.09;100.00;100321.84;1763484;81;27742;-61
2024/02/20 06:02:42;;;;;;;12.55;7.20;;;;;;;5.08;100.00;100326.41;1763451;80;25540;-62
2024/02/20 06:05:09;;;;;;;10.28;6.78;;;;;;;5.11;100.00;100322.37;1763473;81;25553;-61
2024/02/20 06:07:39;;;;;;;8.00;5.70;;;;;;;5.12;100.00;100325.33;1743669;82;25570;-63
2024/02/20 06:10:10;;;;;;;10.48;6.95;;;;;;;5.13;100.00;100329.63;1743664;82;25423;-63
2024/02/20 06:12:39;;;;;;;9.60;5.83;;;;;;;5.14;100.00;100332.05;1743836;82;27369;-63
2024/02/20 06:15:11;;;;;;;10.55;6.42;;;;;;;5.17;100.00;100332.02;1743603;82;25602;-62
2024/02/20 06:17:37;;;;;;;11.53;7.03;;;;;;;5.17;100.00;100336.84;1743823;82;25582;-61
2024/02/20 06:20:10;;;;;;;10.63;7.67;;;;;;;5.19;100.00;100333.38;1743627;82;25626;-63
2024/02/20 06:22:36;;;;;;;13.60;7.47;;;;;;;5.20;100.00;100335.51;1743725;82;25644;-64
2024/02/20 06:25:09;;;;;;;12.78;8.15;;;;;;;5.19;100.00;100332.03;1743747;82;27409;-62
2024/02/20 06:27:38;;;;;;;11.90;8.25;;;;;;;5.20;100.00;100331.48;1763477;81;25362;-63
2024/02/20 06:30:12;;;;;;;16.32;9.03;;;;;;;5.21;100.00;100331.73;1762852;80;25606;-63
2024/02/20 06:32:41;;;;;;;16.87;10.28;;;;;;;5.22;100.00;100339.52;1763645;81;25709;-63
2024/02/20 06:35:10;;;;;;;;;;;;;;;5.23;100.00;100335.77;1766133;81;25452;-62
2024/02/20 06:37:36;;;;;;;20.68;9.98;;;;;;;5.24;100.00;100341.92;1763610;81;27445;-64
2024/02/20 06:40:10;;;;;;;15.55;10.55;;;;;;;5.23;100.00;100333.09;1763414;81;25566;-63
2024/02/20 06:42:40;;;;;;;16.95;11.35;;;;;;;5.24;100.00;100338.73;1763442;80;25411;-63
2024/02/20 06:45:13;;;;;;;17.23;11.93;;;;;;;5.26;100.00;100348.36;1763439;80;26199;-63
2024/02/20 06:47:43;;;;;;;20.57;12.33;;;;;;;5.26;100.00;100345.16;1765149;80;25626;-64
2024/02/20 06:50:12;;;;;;;18.52;12.28;;;;;;;5.26;100.00;100338.97;1765162;80;27326;-62
2024/02/20 06:52:44;;;;;;;22.10;12.68;;;;;;;5.29;100.00;100341.12;1764972;80;25530;-62
2024/02/20 06:55:14;;;;;;;18.30;11.93;;;;;;;5.30;100.00;100342.19;1736139;82;25586;-62
2024/02/20 06:57:43;;;;;;;18.65;12.25;;;;;;;5.33;100.00;100342.99;1735952;82;25686;-63
2024/02/20 07:00:17;;;;;;;17.82;12.10;;;;;;;5.36;100.00;100344.31;1734030;82;25414;-63
2024/02/20 07:02:45;;;;;;;19.07;12.10;;;;;;;5.38;100.00;100343.50;1736033;82;27388;-63
2024/02/20 07:05:14;;;;;;;17.45;12.70;;;;;;;5.40;100.00;100348.07;1735935;82;25406;-62
2024/02/20 07:07:45;;;;;;;20.70;12.47;;;;;;;5.39;100.00;100345.91;1736164;82;25459;-62
2024/02/20 07:10:14;;;;;;;19.48;12.35;;;;;;;5.41;100.00;100346.98;1735997;82;25639;-66
2024/02/20 07:12:41;;;;;;;20.08;11.83;;;;;;;5.43;100.00;100351.53;1736056;82;25383;-66
2024/02/20 07:15:12;;;;;;;18.45;10.85;;;;;;;5.41;100.00;100358.53;1735891;82;29465;-62
2024/02/20 07:17:38;;;;;;;20.48;13.68;;;;;;;5.41;100.00;100362.55;1735968;82;25593;-62
2024/02/20 07:20:13;;;;;;;28.67;16.50;;;;;;;5.42;100.00;100360.13;1736032;82;25647;-61
2024/02/20 07:22:40;;;;;;;17.57;11.53;;;;;;;5.47;100.00;100364.67;1736084;82;25946;-66
2024/02/20 07:25:12;;;;;;;15.90;11.22;;;;;;;5.49;100.00;100366.55;1736058;82;25638;-66
2024/02/20 07:27:39;;;;;;;15.20;10.08;;;;;;;5.53;100.00;100369.48;1736137;82;28167;-66
2024/02/20 07:30:16;;;;;;;17.60;10.75;;;;;;;5.51;100.00;100363.05;1736006;82;25712;-66
2024/02/20 07:32:43;;;;;;;19.55;10.93;;;;;;;5.51;100.00;100372.44;1736001;82;26048;-66
2024/02/20 07:35:11;;;;;;;18.27;11.28;;;;;;;5.53;100.00;100374.84;1735908;82;25654;-67
2024/02/20 07:38:01;;;;;;;14.30;10.15;;;;;;;5.54;100.00;100375.92;1736094;82;25410;-67
2024/02/20 07:40:27;;;;;;;18.40;9.68;;;;;;;5.55;100.00;100375.38;1713210;83;27402;-66
2024/02/20 07:42:53;;;;;;;13.72;8.90;;;;;;;5.54;100.00;100373.23;1700195;84;25433;-66
2024/02/20 07:45:19;;;;;;;15.83;10.00;;;;;;;5.55;100.00;100384.77;1713033;83;25634;-66
2024/02/20 07:47:46;;;;;;;17.62;10.00;;;;;;;5.55;100.00;100377.54;1712925;83;25683;-67
2024/02/20 07:50:14;;;;;;;14.40;8.60;;;;;;;5.55;100.00;100374.86;1712925;83;25630;-62
2024/02/20 07:52:42;;;;;;;14.65;8.80;;;;;;;5.59;100.00;100379.13;1713074;83;27006;-62
2024/02/20 07:55:13;;;;;;;13.70;9.05;;;;;;;5.60;100.00;100379.37;1700139;84;25678;-61
2024/02/20 07:57:44;;;;;;;14.70;8.98;;;;;;;5.60;100.00;100378.86;1713016;83;25706;-63
2024/02/20 08:00:20;;;;;;;13.40;7.83;;;;;;;5.64;100.00;100376.44;1700197;84;25703;-63
2024/02/20 08:02:47;;;;;;;14.18;8.33;;;;;;;5.66;100.00;100382.87;1713004;83;25690;-61
2024/02/20 08:05:14;;;;;;;12.23;8.58;;;;;;;5.65;100.00;100376.68;1744114;81;27426;-60
2024/02/20 08:07:40;;;;;;;12.50;8.23;;;;;;;5.68;100.00;100384.73;1742958;82;25575;-61
2024/02/20 08:10:12;;;;;;;14.83;7.97;;;;;;;5.70;100.00;100369.95;1756878;80;25548;-62
2024/02/20 08:12:43;;;;;;;11.25;7.60;;;;;;;5.73;100.00;100384.17;1743116;82;25615;-63
2024/02/20 08:15:10;;;;;;;14.23;7.35;;;;;;;5.74;100.00;100376.39;1756954;81;25578;-62
2024/02/20 08:17:40;;;;;;;13.25;7.30;;;;;;;5.76;100.00;100382.28;1743171;82;27749;-63
2024/02/20 08:20:13;;;;;;;9.80;6.72;;;;;;;5.75;100.00;100379.87;1756770;81;25471;-62
2024/02/20 08:22:40;;;;;;;9.50;6.20;;;;;;;5.76;100.00;100376.92;1743155;82;25548;-62
2024/02/20 08:25:10;;;;;;;12.78;6.50;;;;;;;5.78;100.00;100378.78;1756860;81;25695;-61
2024/02/20 08:27:38;;;;;;;49.33;30.68;;;;;;;5.81;100.00;100377.45;1743074;82;25443;-60
2024/02/20 08:30:14;;;;;;;32.23;19.73;;;;;;;5.83;100.00;100373.94;1741230;82;27417;-61
2024/02/20 08:32:44;;;;;;;16.55;7.70;;;;;;;5.89;100.00;100378.22;1741218;82;25651;-61
2024/02/20 08:35:12;;;;;;;13.10;6.75;;;;;;;5.90;100.00;100379.02;1738708;82;26197;-61
2024/02/20 08:37:39;;;;;;;8.95;6.50;;;;;;;5.89;100.00;100384.94;1756868;81;25606;-61
2024/02/20 08:40:13;;;;;;;13.38;6.50;;;;;;;5.89;100.00;100376.88;1745349;81;25489;-62
2024/02/20 08:42:39;;;;;;;12.98;7.45;;;;;;;5.93;100.00;100375.79;1762567;81;27430;-61
2024/02/20 08:45:13;;;;;;;11.53;6.62;;;;;;;5.93;100.00;100373.90;1745867;82;25542;-63
2024/02/20 08:47:40;;;;;;;10.32;6.10;;;;;;;5.98;100.00;100385.98;1762589;81;25544;-61
2024/02/20 08:50:11;;;;;;;11.90;6.22;;;;;;;6.00;100.00;100383.03;1745918;82;25670;-63
2024/02/20 08:52:37;;;;;;;9.38;6.30;;;;;;;6.02;100.00;100380.86;1762664;81;25593;-62
2024/02/20 08:55:10;;;;;;;10.28;6.22;;;;;;;6.04;100.00;100387.30;1745984;82;27318;-63
2024/02/20 08:57:38;;;;;;;13.62;7.25;;;;;;;6.08;100.00;100385.66;1762616;81;25606;-63
2024/02/20 09:00:14;;;;;;;13.68;6.60;;;;;;;6.11;100.00;100387.28;1746024;82;25385;-63
2024/02/20 09:02:41;;;;;;;10.85;6.15;;;;;;;6.15;100.00;100384.84;1762077;81;25619;-66
2024/02/20 09:05:09;;;;;;;11.33;6.78;;;;;;;6.19;100.00;100387.77;1745279;82;25672;-61
2024/02/20 09:07:42;;;;;;;12.55;6.42;;;;;;;6.23;100.00;100384.78;1761846;80;27321;-60
2024/02/20 09:10:13;;;;;;;9.05;5.65;;;;;;;6.29;100.00;100393.88;1745738;82;25334;-61
2024/02/20 09:12:39;;;;;;;10.65;6.20;;;;;;;6.34;100.00;100394.41;1762538;81;25456;-63
2024/02/20 09:15:10;;;;;;;8.60;6.40;;;;;;;6.38;100.00;100383.90;1745960;82;25619;-64
2024/02/20 09:17:40;;;;;;;9.85;5.90;;;;;;;6.40;100.00;100392.48;1762664;81;25455;-65
2024/02/20 09:20:17;;;;;;;10.53;6.62;;;;;;;6.43;100.00;100390.58;1745932;82;27486;-63
2024/02/20 09:22:44;;;;;;;9.78;6.05;;;;;;;6.46;100.00;100392.72;1762552;81;25828;-62
2024/02/20 09:25:10;;;;;;;10.15;6.17;;;;;;;6.50;100.00;100393.23;1745952;82;25544;-62
2024/02/20 09:27:42;;;;;;;8.55;5.80;;;;;;;6.54;100.00;100390.23;1762558;80;25706;-62
2024/02/20 09:30:18;;;;;;;8.88;5.15;;;;;;;6.57;100.00;100390.76;1746034;82;25626;-62
2024/02/20 09:32:47;;;;;;;13.45;6.25;;;;;;;6.58;100.00;100403.91;1762504;81;27358;-63
2024/02/20 09:35:14;;;;;;;10.70;5.70;;;;;;;6.60;100.00;100393.69;1745961;82;25559;-61
2024/02/20 09:37:44;;;;;;;11.95;5.90;;;;;;;6.62;100.00;100396.89;1762525;81;25486;-62
2024/02/20 09:40:18;;;;;;;10.70;6.12;;;;;;;6.67;100.00;100398.20;1745735;82;25646;-59
2024/02/20 09:42:54;;;;;;;7.65;5.60;;;;;;;6.70;100.00;100404.36;1762677;81;25397;-58
2024/02/20 09:45:27;;;;;;;10.72;6.15;;;;;;;6.70;100.00;100394.95;1746019;82;27522;-57
2024/02/20 09:48:01;;;;;;;122.70;95.32;;;;;;;6.72;100.00;100402.22;1762461;81;25587;-60
2024/02/20 09:50:32;;;;;;;27.87;20.92;;;;;;;6.78;100.00;100408.36;1746058;82;25461;-68
2024/02/20 09:52:59;;;;;;;10.80;6.47;;;;;;;6.85;100.00;100412.06;1741398;82;25711;-67
2024/02/20 09:55:26;;;;;;;16.05;6.62;;;;;;;6.87;100.00;100412.58;1762816;81;25449;-70
2024/02/20 09:57:57;;;;;;;7.20;5.37;;;;;;;6.87;100.00;100413.37;1746122;82;27312;-70
2024/02/20 10:00:23;;;;;;;7.55;4.87;;;;;;;6.87;100.00;100413.93;1762619;81;25616;-67
2024/02/20 10:02:52;;;;;;;11.60;5.33;;;;;;;6.89;100.00;100415.23;1746047;82;25590;-66
2024/02/20 10:05:23;;;;;;;8.40;5.62;;;;;;;6.86;100.00;100413.66;1762542;81;25601;-67
2024/02/20 10:08:00;;;;;;;8.40;5.10;;;;;;;6.88;100.00;100419.58;1746120;82;25653;-66
2024/02/20 10:10:33;;;;;;;9.78;5.03;;;;;;;6.87;100.00;100416.62;1762682;81;27406;-66
2024/02/20 10:13:08;;;;;;;10.30;5.40;;;;;;;6.84;100.00;100417.17;1746070;82;25731;-66
2024/02/20 10:15:35;;;;;;;7.10;5.62;;;;;;;6.82;100.00;100420.14;1762728;81;25611;-66
2024/02/20 10:18:07;;;;;;;9.25;4.65;;;;;;;6.78;100.00;100412.94;1746068;82;25685;-66
2024/02/20 10:20:34;;;;;;;9.18;4.78;;;;;;;6.75;100.00;100422.34;1762662;81;25382;-65
2024/02/20 10:23:13;;;;;;;7.65;5.22;;;;;;;6.68;100.00;100412.45;1746109;82;27313;-66
2024/02/20 10:25:43;;;;;;;9.98;5.15;;;;;;;6.68;100.00;100421.31;1762651;81;25547;-66
2024/02/20 10:28:09;;;;;;;9.45;5.42;;;;;;;6.68;100.00;100422.66;1745998;82;25563;-66
2024/02/20 10:30:36;;;;;;;10.08;6.03;;;;;;;6.65;100.00;100419.73;1762607;81;25629;-66
2024/02/20 10:33:04;;;;;;;10.35;5.80;;;;;;;6.63;100.00;100420.01;1746088;82;25368;-66
2024/02/20 10:35:30;;;;;;;9.75;6.00;;;;;;;6.62;100.00;100418.39;1762607;81;27322;-67
2024/02/20 10:38:05;;;;;;;9.28;5.75;;;;;;;6.64;100.00;100414.08;1745944;82;25492;-66
2024/02/20 10:40:32;;;;;;;9.55;5.58;;;;;;;6.67;100.00;100417.56;1740765;80;25908;-67
2024/02/20 10:42:58;;;;;;;13.75;6.28;;;;;;;6.71;100.00;100411.91;1714692;83;25632;-68
2024/02/20 10:45:28;;;;;;;10.20;6.42;;;;;;;6.85;100.00;100417.45;1730843;82;25624;-68
2024/02/20 10:47:59;;;;;;;8.95;6.30;;;;;;;6.99;100.00;100425.67;1714708;83;27318;-67
2024/02/20 10:50:29;;;;;;;12.47;6.33;;;;;;;7.16;100.00;100419.87;1730713;82;25435;-66
2024/02/20 10:53:00;;;;;;;9.60;6.37;;;;;;;7.25;100.00;100423.03;1714886;83;25374;-67
2024/02/20 10:55:31;;;;;;;9.70;6.12;;;;;;;7.39;100.00;100418.30;1730824;82;26151;-67
2024/02/20 10:58:02;;;;;;;9.78;5.95;;;;;;;7.46;100.00;100422.28;1714741;83;25551;-68
2024/02/20 11:00:34;;;;;;;8.35;4.87;;;;;;;7.48;100.00;100418.75;1730673;82;29472;-67
2024/02/20 11:03:06;;;;;;;10.23;5.00;;;;;;;7.51;100.00;100408.50;1714677;83;25542;-68
2024/02/20 11:05:34;;;;;;;7.87;4.00;;;;;;;7.49;99.68;100408.78;1703813;82;25429;-71
2024/02/20 11:08:10;;;;;;;9.13;4.05;;;;;;;7.45;98.30;100413.94;1714704;83;26199;-67
2024/02/20 11:10:38;;;;;;;5.55;3.47;;;;;;;7.44;97.85;100412.35;1730755;82;25394;-61
2024/02/20 11:13:16;;;;;;;11.40;5.12;;;;;;;7.40;97.04;100409.95;1714792;83;27397;-62
2024/02/20 11:15:42;;;;;;;21.25;13.40;;;;;;;7.40;97.54;100413.19;1729537;82;25657;-59
2024/02/20 11:18:20;;;;;;;6.72;4.03;;;;;;;7.41;97.40;100415.60;1714754;83;25421;-62
2024/02/20 11:20:52;;;;;;;11.70;4.53;;;;;;;7.40;96.79;100409.16;1730824;82;25817;-66
2024/02/20 11:23:24;;;;;;;8.70;3.55;;;;;;;7.39;96.42;100408.36;1709987;83;25585;-65
2024/02/20 11:25:50;;;;;;;5.12;3.72;;;;;;;7.42;96.83;100402.42;1727593;82;27404;-65